Time;durP1;ratioP1;P1;durP2;ratioP2;P2;SDS_P1;SDS_P2;PMS_P1;PMS_P2;Temp;Humidity;BMP_temperature;BMP_pressure;BME280_temperature;BME280_humidity;BME280_pressure;Samples;Min_cycle;Max_cycle;Signal;HPM_P1;HPM_P2
2023/12/24 00:02:19;;;;;;;;;;;10.30;99.90;;;;;;6759306;88;20086;-79
2023/12/24 00:12:20;;;;;;;;;;;10.30;99.90;;;;;;6762519;88;20074;-80
2023/12/24 00:22:20;;;;;;;;;;;10.30;99.90;;;;;;6772642;88;20036;-80
2023/12/24 00:32:20;;;;;;;;;;;10.40;99.90;;;;;;6763286;88;20885;-80
2023/12/24 00:42:23;;;;;;;;;;;10.40;99.90;;;;;;6765742;87;20524;-80
2023/12/24 00:52:23;;;;;;;;;;;10.40;99.90;;;;;;6764982;88;20073;-80
2023/12/24 01:02:24;;;;;;;;;;;10.40;99.90;;;;;;6763533;88;20087;-79
2023/12/24 01:12:24;;;;;;;;;;;10.40;99.90;;;;;;6765425;88;20069;-80
2023/12/24 01:22:25;;;;;;;;;;;10.30;99.90;;;;;;6765090;88;20077;-80
2023/12/24 01:32:25;;;;;;;;;;;10.20;99.90;;;;;;6762213;88;20377;-80
2023/12/24 01:42:25;;;;;;;;;;;10.40;99.90;;;;;;6764945;87;20688;-80
2023/12/24 01:52:26;;;;;;;;;;;10.50;99.90;;;;;;6765468;88;20080;-80
2023/12/24 02:02:27;;;;;;;;;;;10.50;99.90;;;;;;6765741;88;20049;-80
2023/12/24 02:12:27;;;;;;;;;;;10.50;99.90;;;;;;6768159;88;20041;-80
2023/12/24 02:22:28;;;;;;;;;;;10.50;99.90;;;;;;6765396;88;20075;-80
2023/12/24 02:32:29;;;;;;;;;;;10.50;99.90;;;;;;6764016;88;20071;-81
2023/12/24 02:42:29;;;;;;;;;;;10.50;99.90;;;;;;6759163;88;20061;-81
2023/12/24 02:52:30;;;;;;;;;;;10.60;99.90;;;;;;6760638;88;20076;-80
2023/12/24 03:02:31;;;;;;;;;;;10.60;99.90;;;;;;6766428;88;20069;-81
2023/12/24 03:12:32;;;;;;;;;;;10.60;99.90;;;;;;6762999;88;20057;-81
2023/12/24 03:22:32;;;;;;;;;;;10.80;99.90;;;;;;6758686;88;20078;-79
2023/12/24 03:32:33;;;;;;;;;;;10.70;99.90;;;;;;6763804;88;20065;-81
2023/12/24 03:42:33;;;;;;;;;;;10.80;99.90;;;;;;6763928;88;20144;-80
2023/12/24 03:52:33;;;;;;;;;;;10.70;99.90;;;;;;6759674;88;20183;-80
2023/12/24 04:02:55;;;;;;;;;;;10.80;99.90;;;;;;6741387;77;20087;-84
2023/12/24 04:23:37;;;;;;;;;;;10.20;99.90;;;;;;6695321;88;20060;-83
2023/12/24 04:33:37;;;;;;;;;;;10.00;99.90;;;;;;6696700;88;20111;-83
2023/12/24 05:03:45;;;;;;;;;;;10.00;99.90;;;;;;6715884;87;20024;-84
2023/12/24 05:13:46;;;;;;;;;;;10.00;99.90;;;;;;6716582;87;20034;-84
2023/12/24 06:04:00;;;;;;;;;;;9.60;99.90;;;;;;6698691;88;20098;-85
2023/12/24 06:55:30;;;;;;;;;;;10.00;99.90;;;;;;6802816;87;20131;-85
2023/12/24 07:05:35;;;;;;;;;;;10.10;99.90;;;;;;6801800;87;20112;-84
2023/12/24 07:26:37;;;;;;;;;;;10.20;99.90;;;;;;6749446;88;20470;-84
2023/12/24 07:36:58;;;;;;;;;;;10.10;99.90;;;;;;6803534;76;20022;-83
2023/12/24 07:57:12;;;;;;;;;;;10.40;99.90;;;;;;7478487;76;21286;31
2023/12/24 08:27:39;;;;;;;;;;;10.80;99.90;;;;;;6801495;87;20091;-82
2023/12/24 08:37:40;;;;;;;;;;;10.90;99.90;;;;;;6804505;87;20071;-80
2023/12/24 08:47:40;;;;;;;;;;;11.00;99.90;;;;;;6795243;87;20104;-81
2023/12/24 08:57:41;;;;;;;;;;;11.00;99.90;;;;;;6788981;87;20074;-80
2023/12/24 09:07:41;;;;;;;;;;;11.20;99.90;;;;;;6794218;87;20032;-81
2023/12/24 09:17:42;;;;;;;;;;;11.20;99.90;;;;;;6790660;87;20073;-80
2023/12/24 09:27:42;;;;;;;;;;;11.30;99.90;;;;;;6709746;87;20059;-79
2023/12/24 09:37:42;;;;;;;;;;;11.30;99.90;;;;;;6724608;87;20048;-81
2023/12/24 09:47:43;;;;;;;;;;;11.60;99.90;;;;;;6709895;87;20064;-80
2023/12/24 09:57:43;;;;;;;;;;;11.50;99.90;;;;;;6710014;87;20047;-81
2023/12/24 10:07:45;;;;;;;;;;;11.60;99.90;;;;;;6711756;87;20036;-80
2023/12/24 10:17:46;;;;;;;;;;;11.50;99.90;;;;;;6699872;88;20525;-81
2023/12/24 10:27:46;;;;;;;;;;;11.70;99.90;;;;;;6684740;88;20119;-81
2023/12/24 10:37:48;;;;;;;;;;;11.90;99.90;;;;;;6677729;89;20044;-79
2023/12/24 10:47:48;;;;;;;;;;;12.00;99.90;;;;;;6682697;89;20052;-80
2023/12/24 10:58:09;;;;;;;;;;;12.10;99.90;;;;;;6681365;89;20960;-80
2023/12/24 11:08:30;;;;;;;;;;;12.00;99.90;;;;;;6689231;87;20090;-82
2023/12/24 11:18:41;;;;;;;;;;;12.00;99.90;;;;;;6689020;87;20077;-81
2023/12/24 11:28:42;;;;;;;;;;;12.10;99.90;;;;;;6700449;87;20525;-82
2023/12/24 11:39:07;;;;;;;;;;;12.40;99.90;;;;;;6694222;77;20065;-82
2023/12/24 11:59:31;;;;;;;;;;;12.60;99.90;;;;;;6827165;76;20444;-79
2023/12/24 12:09:31;;;;;;;;;;;12.60;99.90;;;;;;6688782;88;20041;-82
2023/12/24 12:19:39;;;;;;;;;;;12.60;99.90;;;;;;6674007;88;20056;-82
2023/12/24 12:29:39;;;;;;;;;;;12.50;99.90;;;;;;6668423;88;20079;-80
2023/12/24 12:39:40;;;;;;;;;;;12.60;99.90;;;;;;6660111;89;20832;-82
2023/12/24 12:49:43;;;;;;;;;;;12.60;99.90;;;;;;6684731;88;20139;-83
2023/12/24 13:19:51;;;;;;;;;;;11.00;99.90;;;;;;6806681;87;20134;-81
2023/12/24 13:29:51;;;;;;;;;;;10.80;99.90;;;;;;6803727;87;20055;-81
2023/12/24 13:39:51;;;;;;;;;;;10.80;99.90;;;;;;6804527;87;20052;-80
2023/12/24 13:49:55;;;;;;;;;;;10.80;99.90;;;;;;6804182;87;20071;-81
2023/12/24 13:59:56;;;;;;;;;;;10.70;99.90;;;;;;6788155;87;20071;-83
2023/12/24 14:09:56;;;;;;;;;;;11.00;99.90;;;;;;6786065;87;20076;-82
2023/12/24 14:19:57;;;;;;;;;;;11.10;99.90;;;;;;6692622;87;20077;-82
2023/12/24 14:29:58;;;;;;;;;;;11.20;99.90;;;;;;6691262;87;20063;-81
2023/12/24 14:39:59;;;;;;;;;;;11.50;99.90;;;;;;6690483;87;20547;-82
2023/12/24 14:50:00;;;;;;;;;;;11.70;99.90;;;;;;6688966;87;20113;-81
2023/12/24 15:00:01;;;;;;;;;;;11.70;99.90;;;;;;6703006;88;20184;-81
2023/12/24 15:10:03;;;;;;;;;;;12.00;99.90;;;;;;6689229;87;20091;-81
2023/12/24 15:20:04;;;;;;;;;;;12.10;99.90;;;;;;6689242;89;20571;-82
2023/12/24 15:30:05;;;;;;;;;;;12.30;99.90;;;;;;6689777;89;20143;-81
2023/12/24 15:40:07;;;;;;;;;;;12.60;99.90;;;;;;6690495;88;20044;-84
2023/12/24 15:50:08;;;;;;;;;;;12.50;99.90;;;;;;6689337;89;20084;-80
2023/12/24 16:00:09;;;;;;;;;;;12.60;99.90;;;;;;6729041;77;20058;-77
2023/12/24 16:10:09;;;;;;;;;;;12.40;99.90;;;;;;6755162;88;20093;-77
2023/12/24 16:20:10;;;;;;;;;;;12.70;99.90;;;;;;6721522;88;20310;-78
2023/12/24 16:30:11;;;;;;;;;;;12.70;99.90;;;;;;6682132;88;20221;-79
2023/12/24 16:40:11;;;;;;;;;;;12.80;99.90;;;;;;6736983;87;20068;-79
2023/12/24 16:50:12;;;;;;;;;;;12.90;99.90;;;;;;6764956;88;20071;-80
2023/12/24 17:00:13;;;;;;;;;;;12.90;99.90;;;;;;6764267;88;20072;-79
2023/12/24 17:10:14;;;;;;;;;;;13.00;99.90;;;;;;6732520;88;20492;-78
2023/12/24 17:20:14;;;;;;;;;;;13.10;99.90;;;;;;6736109;88;20097;-79
2023/12/24 17:30:16;;;;;;;;;;;13.20;99.90;;;;;;6740940;88;20861;-79
2023/12/24 17:40:16;;;;;;;;;;;13.30;99.90;;;;;;6739433;88;20546;-78
2023/12/24 17:50:16;;;;;;;;;;;13.40;99.90;;;;;;6744892;88;20057;-79
2023/12/24 18:00:17;;;;;;;;;;;13.40;99.90;;;;;;6756929;88;20121;-77
2023/12/24 18:10:17;;;;;;;;;;;13.40;99.90;;;;;;6755661;88;20050;-76
2023/12/24 18:20:18;;;;;;;;;;;13.10;99.90;;;;;;6741028;88;20234;-79
2023/12/24 18:30:18;;;;;;;;;;;12.90;99.90;;;;;;6750986;88;20111;-79
2023/12/24 18:40:19;;;;;;;;;;;12.90;99.90;;;;;;6752467;88;20237;-78
2023/12/24 18:50:19;;;;;;;;;;;12.80;99.90;;;;;;6754016;88;20191;-80
2023/12/24 19:00:20;;;;;;;;;;;12.10;99.90;;;;;;6759687;88;20143;-78
2023/12/24 19:10:21;;;;;;;;;;;11.90;99.90;;;;;;6760700;88;20113;-78
2023/12/24 19:20:21;;;;;;;;;;;12.00;99.90;;;;;;6753448;88;20061;-78
2023/12/24 19:30:21;;;;;;;;;;;12.00;99.90;;;;;;6751560;88;20070;-78
2023/12/24 19:40:22;;;;;;;;;;;12.10;99.90;;;;;;6754823;88;20062;-79
2023/12/24 19:50:23;;;;;;;;;;;12.10;99.90;;;;;;6742977;88;20066;-79
2023/12/24 20:00:23;;;;;;;;;;;11.90;99.90;;;;;;6711231;88;20053;-79
2023/12/24 20:10:23;;;;;;;;;;;12.00;99.90;;;;;;6763216;88;20076;-77
2023/12/24 20:20:24;;;;;;;;;;;12.00;99.90;;;;;;6752195;88;21818;-78
2023/12/24 20:30:24;;;;;;;;;;;12.10;99.90;;;;;;6732269;88;20110;-80
2023/12/24 20:40:25;;;;;;;;;;;12.20;99.90;;;;;;6757257;88;20111;-79
2023/12/24 20:50:25;;;;;;;;;;;12.30;99.90;;;;;;6722732;88;20597;-80
2023/12/24 21:00:25;;;;;;;;;;;12.20;99.90;;;;;;6741659;88;20062;-80
2023/12/24 21:10:26;;;;;;;;;;;12.10;99.90;;;;;;6748811;88;20141;-79
2023/12/24 21:20:26;;;;;;;;;;;12.20;99.90;;;;;;6765512;88;20104;-77
2023/12/24 21:30:27;;;;;;;;;;;12.30;99.90;;;;;;6761150;88;20049;-79
2023/12/24 21:40:27;;;;;;;;;;;12.30;99.90;;;;;;6757838;88;20552;-78
2023/12/24 21:50:28;;;;;;;;;;;12.40;99.90;;;;;;6758106;88;20102;-79
2023/12/24 22:00:49;;;;;;;;;;;12.60;99.90;;;;;;6758144;76;20218;-79
2023/12/24 22:10:50;;;;;;;;;;;12.60;99.90;;;;;;6765264;88;20050;-79
2023/12/24 22:20:50;;;;;;;;;;;12.60;99.90;;;;;;6746605;88;20094;-78
2023/12/24 22:30:51;;;;;;;;;;;12.60;99.90;;;;;;6744734;88;20572;-79
2023/12/24 22:40:51;;;;;;;;;;;12.60;99.90;;;;;;6738003;88;20050;-79
2023/12/24 22:50:51;;;;;;;;;;;12.60;99.90;;;;;;6746142;88;20594;-79
2023/12/24 23:00:52;;;;;;;;;;;12.60;99.90;;;;;;6745613;88;20121;-80
2023/12/24 23:10:53;;;;;;;;;;;12.60;99.90;;;;;;6745474;88;20085;-79
2023/12/24 23:20:53;;;;;;;;;;;12.50;99.90;;;;;;6742324;88;20177;-79
2023/12/24 23:30:54;;;;;;;;;;;12.30;99.90;;;;;;6743970;88;20434;-78
2023/12/24 23:40:55;;;;;;;;;;;12.40;99.90;;;;;;6739405;88;20200;-79
2023/12/24 23:50:55;;;;;;;;;;;12.30;99.90;;;;;;6747233;88;20135;-79
